Time;durP1;ratioP1;P1;durP2;ratioP2;P2;SDS_P1;SDS_P2;PMS_P1;PMS_P2;Temp;Humidity;BMP_temperature;BMP_pressure;BME280_temperature;BME280_humidity;BME280_pressure;Samples;Min_cycle;Max_cycle;Signal;HPM_P1;HPM_P2
2023/06/06 00:12:04;;;;;;;8.15;4.28;;;;;;;;;;4991856;28;19976;-84
2023/06/06 00:18:29;;;;;;;;;;;;;;;;;;;;;
2023/06/06 00:31:25;;;;;;;6.40;3.40;;;;;;;;;;4856669;29;20037;-85
2023/06/06 00:37:20;;;;;;;13.52;4.20;;;;;;;;;;4906764;28;20054;-84
2023/06/06 00:39:49;;;;;;;12.40;4.15;;;;;;;;;;4901333;29;20131;-86
2023/06/06 00:45:48;;;;;;;7.40;3.70;;;;;;;;;;4952882;28;20084;-84
2023/06/06 00:48:32;;;;;;;11.35;3.85;;;;;;;;;;4946389;28;20078;-84
2023/06/06 00:51:33;;;;;;;7.97;4.00;;;;;;;;;;4942851;28;21056;-84
2023/06/06 01:01:12;;;;;;;;;;;;;;;;;;;;;
2023/06/06 01:04:10;;;;;;;11.88;4.32;;;;;;;;;;4999262;28;20034;-83
2023/06/06 01:06:57;;;;;;;9.80;4.10;;;;;;;;;;4967909;28;20046;-85
2023/06/06 01:09:41;;;;;;;8.90;3.92;;;;;;;;;;4976532;28;20049;-84
2023/06/06 01:12:31;;;;;;;12.70;3.97;;;;;;;;;;5023258;28;20072;-84
2023/06/06 01:15:16;;;;;;;12.75;4.68;;;;;;;;;;5021964;28;20036;-84
2023/06/06 01:17:42;;;;;;;;;;;;;;;;;;5021583;28;20049;-85
2023/06/06 01:23:39;;;;;;;8.48;3.88;;;;;;;;;;4986669;28;20080;-84
2023/06/06 01:26:17;;;;;;;10.63;4.15;;;;;;;;;;5020909;28;20050;-84
2023/06/06 01:28:44;;;;;;;15.02;4.13;;;;;;;;;;5018981;28;20605;-83
2023/06/06 01:31:12;;;;;;;10.27;4.70;;;;;;;;;;4998673;28;20052;-84
2023/06/06 01:34:07;;;;;;;8.25;4.10;;;;;;;;;;5041600;28;20079;-84
2023/06/06 01:36:52;;;;;;;8.70;4.07;;;;;;;;;;5034512;28;20428;-85
2023/06/06 01:39:38;;;;;;;10.32;3.95;;;;;;;;;;5043152;28;20120;-85
2023/06/06 01:42:38;;;;;;;;;;;;;;;;;;;;;
2023/06/06 01:45:12;;;;;;;16.10;4.32;;;;;;;;;;5012080;28;20053;-85
2023/06/06 01:47:45;;;;;;;11.60;4.45;;;;;;;;;;5007696;28;20052;-84
2023/06/06 01:50:17;;;;;;;6.63;4.07;;;;;;;;;;5000335;28;20079;-84
2023/06/06 01:52:43;;;;;;;9.23;3.88;;;;;;;;;;5010116;28;21733;-85
2023/06/06 01:55:13;;;;;;;15.23;5.05;;;;;;;;;;5021500;28;20115;-84
2023/06/06 01:57:46;;;;;;;12.68;4.20;;;;;;;;;;4997558;28;20063;-86
2023/06/06 02:00:16;;;;;;;12.25;4.28;;;;;;;;;;5016501;28;20049;-85
2023/06/06 02:02:42;;;;;;;10.85;4.65;;;;;;;;;;5004551;28;20131;-85
2023/06/06 02:05:09;;;;;;;7.22;4.30;;;;;;;;;;5050900;28;20052;-85
2023/06/06 02:07:46;;;;;;;13.80;5.07;;;;;;;;;;5077766;27;20043;-85
2023/06/06 02:10:18;;;;;;;11.00;3.70;;;;;;;;;;5063979;28;20088;-85
2023/06/06 02:15:57;;;;;;;;;;;;;;;;;;;;;
2023/06/06 02:18:52;;;;;;;6.65;3.67;;;;;;;;;;5057329;28;20052;-85
2023/06/06 02:21:44;;;;;;;10.48;3.72;;;;;;;;;;5042932;28;22338;-86
2023/06/06 02:24:24;;;;;;;7.75;3.58;;;;;;;;;;5020077;28;20048;-85
2023/06/06 02:27:01;;;;;;;8.82;3.97;;;;;;;;;;5046137;28;20113;-85
2023/06/06 02:30:03;;;;;;;12.05;3.90;;;;;;;;;;5074356;28;20063;-85
2023/06/06 02:32:51;;;;;;;9.38;3.78;;;;;;;;;;5043326;28;20046;-84
2023/06/06 02:35:33;;;;;;;10.77;3.83;;;;;;;;;;5052254;28;20066;-85
2023/06/06 02:38:35;;;;;;;8.45;4.35;;;;;;;;;;5065946;28;20048;-84
2023/06/06 02:41:03;;;;;;;13.25;4.05;;;;;;;;;;5063809;28;20036;-86
2023/06/06 02:43:53;;;;;;;7.75;4.80;;;;;;;;;;5052902;28;20044;-85
2023/06/06 02:46:27;;;;;;;13.43;5.18;;;;;;;;;;5075417;28;20416;-85
2023/06/06 02:52:48;;;;;;;10.40;4.40;;;;;;;;;;5092769;28;20639;-84
2023/06/06 02:55:22;;;;;;;12.10;4.10;;;;;;;;;;5073111;28;20048;-84
2023/06/06 02:57:51;;;;;;;10.90;4.38;;;;;;;;;;5093246;28;20846;-84
2023/06/06 03:00:44;;;;;;;11.52;4.72;;;;;;;;;;5085248;28;20051;-84
2023/06/06 03:03:49;;;;;;;10.52;4.90;;;;;;;;;;5086986;28;20059;-84
2023/06/06 03:07:00;;;;;;;12.77;5.28;;;;;;;;;;5065395;28;20484;-83
2023/06/06 03:09:30;;;;;;;13.00;4.70;;;;;;;;;;5079711;28;20080;-85
2023/06/06 03:12:18;;;;;;;12.48;4.07;;;;;;;;;;5028557;28;20759;-85
2023/06/06 03:15:09;;;;;;;13.13;5.28;;;;;;;;;;5077185;28;20076;-84
2023/06/06 03:18:05;;;;;;;12.98;4.95;;;;;;;;;;5072353;28;20048;-85
2023/06/06 03:20:38;;;;;;;12.80;5.35;;;;;;;;;;5061654;28;20039;-85
2023/06/06 03:23:08;;;;;;;14.82;4.32;;;;;;;;;;5061121;28;20177;-84
2023/06/06 03:25:54;;;;;;;13.75;4.68;;;;;;;;;;5043881;28;20070;-84
2023/06/06 03:28:23;;;;;;;14.75;4.80;;;;;;;;;;5079418;28;20040;-85
2023/06/06 03:30:52;;;;;;;8.93;4.47;;;;;;;;;;5071823;28;20399;-84
2023/06/06 03:33:28;;;;;;;16.75;5.00;;;;;;;;;;5040914;28;20031;-86
2023/06/06 03:36:07;;;;;;;16.02;5.25;;;;;;;;;;5062378;28;20040;-85
2023/06/06 03:38:36;;;;;;;16.83;5.72;;;;;;;;;;5077708;28;20055;-84
2023/06/06 03:41:04;;;;;;;13.63;4.78;;;;;;;;;;5066161;28;20060;-85
2023/06/06 03:43:45;;;;;;;19.13;5.97;;;;;;;;;;5078953;28;20484;-86
2023/06/06 03:46:29;;;;;;;12.02;5.22;;;;;;;;;;5061968;28;20043;-84
2023/06/06 03:49:01;;;;;;;17.77;5.88;;;;;;;;;;5078702;28;20036;-86
2023/06/06 03:51:27;;;;;;;11.10;4.93;;;;;;;;;;5059544;28;20063;-86
2023/06/06 03:54:05;;;;;;;18.45;5.07;;;;;;;;;;5039397;28;20117;-84
2023/06/06 03:56:40;;;;;;;13.70;5.32;;;;;;;;;;5065202;28;20162;-87
2023/06/06 03:59:16;;;;;;;21.30;5.50;;;;;;;;;;5076993;28;20071;-86
2023/06/06 04:01:44;;;;;;;14.13;5.05;;;;;;;;;;5079605;28;20123;-87
2023/06/06 04:04:15;;;;;;;11.13;4.50;;;;;;;;;;5078378;28;20115;-87
2023/06/06 04:06:42;;;;;;;13.68;5.07;;;;;;;;;;5078130;28;20028;-85
2023/06/06 04:09:10;;;;;;;12.77;4.78;;;;;;;;;;5074839;28;20051;-84
2023/06/06 04:11:40;;;;;;;12.90;5.47;;;;;;;;;;5061629;28;20050;-85
2023/06/06 04:14:06;;;;;;;10.93;4.57;;;;;;;;;;5044897;28;20043;-84
2023/06/06 04:16:35;;;;;;;16.45;5.78;;;;;;;;;;5063818;28;20487;-84
2023/06/06 04:19:06;;;;;;;12.90;4.88;;;;;;;;;;5024881;28;20041;-85
2023/06/06 04:21:38;;;;;;;9.10;4.05;;;;;;;;;;5062944;28;20138;-84
2023/06/06 04:24:07;;;;;;;11.82;4.75;;;;;;;;;;5065174;28;20047;-84
2023/06/06 04:26:33;;;;;;;13.48;4.80;;;;;;;;;;5063129;28;20059;-84
2023/06/06 04:29:50;;;;;;;9.15;4.20;;;;;;;;;;5131068;27;20375;-85
2023/06/06 04:32:21;;;;;;;13.27;4.60;;;;;;;;;;5128424;27;20043;-85
2023/06/06 04:34:51;;;;;;;10.77;4.35;;;;;;;;;;5108385;27;20735;-85
2023/06/06 04:37:18;;;;;;;9.57;3.92;;;;;;;;;;5123533;27;20095;-83
2023/06/06 04:39:45;;;;;;;14.27;5.75;;;;;;;;;;5105432;27;20045;-83
2023/06/06 04:42:12;;;;;;;10.50;4.18;;;;;;;;;;5108788;27;20045;-83
2023/06/06 04:44:46;;;;;;;6.60;4.05;;;;;;;;;;5109660;27;20133;-84
2023/06/06 04:47:19;;;;;;;10.98;4.53;;;;;;;;;;5124581;27;20082;-83
2023/06/06 04:49:48;;;;;;;12.38;4.07;;;;;;;;;;5113649;27;20038;-83
2023/06/06 04:52:19;;;;;;;10.18;4.53;;;;;;;;;;5122739;27;20027;-83
2023/06/06 04:54:55;;;;;;;11.35;4.10;;;;;;;;;;5109357;27;20459;-82
2023/06/06 04:57:24;;;;;;;8.02;3.80;;;;;;;;;;5088828;27;20223;-84
2023/06/06 04:59:53;;;;;;;12.38;4.00;;;;;;;;;;5094520;27;20035;-84
2023/06/06 05:02:28;;;;;;;8.77;4.10;;;;;;;;;;5111711;27;20547;-86
2023/06/06 05:04:57;;;;;;;;;;;;;;;;;;5087107;27;20046;-84
2023/06/06 05:07:23;;;;;;;9.15;3.50;;;;;;;;;;5099321;27;19923;-84
2023/06/06 05:09:52;;;;;;;9.10;3.72;;;;;;;;;;5097957;27;20062;-83
2023/06/06 05:12:24;;;;;;;15.48;4.32;;;;;;;;;;5114286;27;20590;-84
2023/06/06 05:14:53;;;;;;;9.80;3.60;;;;;;;;;;5095257;27;20035;-84
2023/06/06 05:17:23;;;;;;;12.32;4.15;;;;;;;;;;5106174;27;20043;-84
2023/06/06 05:19:56;;;;;;;12.68;3.65;;;;;;;;;;5112992;27;20444;-83
2023/06/06 05:22:25;;;;;;;9.75;3.58;;;;;;;;;;5107621;27;20091;-84
2023/06/06 05:24:52;;;;;;;10.38;4.05;;;;;;;;;;5108411;27;20479;-84
2023/06/06 05:27:21;;;;;;;11.38;3.58;;;;;;;;;;5100128;27;20039;-84
2023/06/06 05:30:03;;;;;;;9.82;3.60;;;;;;;;;;5099612;27;20046;-84
2023/06/06 05:32:30;;;;;;;14.45;3.38;;;;;;;;;;5116335;27;20048;-85
2023/06/06 05:35:01;;;;;;;8.25;3.83;;;;;;;;;;5103103;27;21155;-84
2023/06/06 05:37:28;;;;;;;15.55;4.13;;;;;;;;;;5099071;27;20481;-84
2023/06/06 05:39:57;;;;;;;14.57;4.55;;;;;;;;;;5095043;27;20135;-84
2023/06/06 05:42:23;;;;;;;8.10;4.10;;;;;;;;;;5086924;27;20077;-84
2023/06/06 05:44:52;;;;;;;15.18;4.32;;;;;;;;;;5086244;27;20054;-84
2023/06/06 05:47:18;;;;;;;11.93;3.72;;;;;;;;;;5100467;27;20034;-82
2023/06/06 05:49:44;;;;;;;10.30;4.28;;;;;;;;;;5084638;27;20051;-82
2023/06/06 05:52:10;;;;;;;7.47;3.42;;;;;;;;;;5085215;27;20047;-83
2023/06/06 05:54:36;;;;;;;14.43;4.00;;;;;;;;;;5068116;27;20585;-82
2023/06/06 05:57:03;;;;;;;5.90;3.30;;;;;;;;;;5084521;27;20194;-84
2023/06/06 05:59:29;;;;;;;10.57;3.80;;;;;;;;;;5081879;27;20081;-84
2023/06/06 06:01:55;;;;;;;10.50;3.88;;;;;;;;;;5087033;27;20570;-85
2023/06/06 06:04:23;;;;;;;9.98;4.15;;;;;;;;;;5091560;27;20040;-84
2023/06/06 06:06:49;;;;;;;10.80;3.70;;;;;;;;;;5100299;27;20458;-84
2023/06/06 06:09:17;;;;;;;17.20;4.80;;;;;;;;;;5083619;27;20430;-83
2023/06/06 06:11:43;;;;;;;13.25;3.60;;;;;;;;;;5087709;27;20110;-85
2023/06/06 06:14:11;;;;;;;9.85;3.72;;;;;;;;;;5070303;27;20054;-85
2023/06/06 06:16:44;;;;;;;15.27;4.25;;;;;;;;;;5085099;27;20427;-85
2023/06/06 06:19:19;;;;;;;9.93;4.35;;;;;;;;;;5087330;27;20043;-82
2023/06/06 06:21:48;;;;;;;11.38;4.20;;;;;;;;;;5086290;27;20180;-82
2023/06/06 06:24:14;;;;;;;11.45;4.18;;;;;;;;;;5082870;27;20047;-82
2023/06/06 06:26:40;;;;;;;13.00;4.10;;;;;;;;;;5096337;27;20479;-83
2023/06/06 06:29:06;;;;;;;9.15;3.67;;;;;;;;;;5088442;27;20660;-82
2023/06/06 06:31:35;;;;;;;14.77;4.22;;;;;;;;;;5101932;27;20495;-83
2023/06/06 06:34:01;;;;;;;8.23;3.28;;;;;;;;;;5085976;27;20048;-82
2023/06/06 06:36:27;;;;;;;10.35;3.70;;;;;;;;;;5085248;27;20044;-83
2023/06/06 06:38:56;;;;;;;9.27;3.58;;;;;;;;;;5098230;27;20260;-83
2023/06/06 06:41:26;;;;;;;9.80;4.93;;;;;;;;;;5089145;27;20588;-83
2023/06/06 06:43:52;;;;;;;13.30;4.25;;;;;;;;;;5090154;27;20043;-83
2023/06/06 06:46:27;;;;;;;11.02;4.30;;;;;;;;;;5086244;27;20069;-83
2023/06/06 06:48:53;;;;;;;6.50;3.88;;;;;;;;;;5080440;27;20051;-82
2023/06/06 06:51:21;;;;;;;11.95;4.50;;;;;;;;;;5074640;27;20619;-82
2023/06/06 06:53:51;;;;;;;9.85;4.85;;;;;;;;;;5124866;27;20052;-83
2023/06/06 06:56:18;;;;;;;14.73;4.13;;;;;;;;;;5128373;27;20054;-82
2023/06/06 06:58:46;;;;;;;14.57;3.78;;;;;;;;;;5091836;27;20051;-83
2023/06/06 07:01:12;;;;;;;11.70;3.70;;;;;;;;;;5101129;27;20483;-84
2023/06/06 07:03:44;;;;;;;14.10;4.38;;;;;;;;;;5086949;27;20751;-84
2023/06/06 07:06:11;;;;;;;13.65;4.10;;;;;;;;;;5074303;27;20080;-83
2023/06/06 07:08:41;;;;;;;13.48;4.40;;;;;;;;;;5100798;27;20122;-83
2023/06/06 07:11:07;;;;;;;10.60;4.15;;;;;;;;;;5099545;27;20142;-84
2023/06/06 07:13:34;;;;;;;8.73;4.00;;;;;;;;;;5089978;27;20045;-85
2023/06/06 07:16:01;;;;;;;10.98;4.15;;;;;;;;;;5077511;27;20040;-85
2023/06/06 07:18:27;;;;;;;7.38;3.70;;;;;;;;;;5066421;27;20072;-84
2023/06/06 07:20:53;;;;;;;10.90;4.38;;;;;;;;;;5084868;27;20095;-84
2023/06/06 07:23:19;;;;;;;18.85;6.00;;;;;;;;;;5100879;27;20046;-85
2023/06/06 07:25:45;;;;;;;7.70;3.58;;;;;;;;;;5102512;27;20043;-83
2023/06/06 07:28:13;;;;;;;7.43;4.10;;;;;;;;;;5081988;27;20051;-83
2023/06/06 07:30:41;;;;;;;7.80;4.00;;;;;;;;;;5086558;27;20127;-82
2023/06/06 07:33:07;;;;;;;9.02;4.20;;;;;;;;;;5100956;27;20371;-82
2023/06/06 07:35:36;;;;;;;9.73;3.85;;;;;;;;;;5081802;27;20041;-83
2023/06/06 07:38:02;;;;;;;7.57;3.58;;;;;;;;;;5092993;27;20042;-85
2023/06/06 07:40:28;;;;;;;12.30;5.78;;;;;;;;;;5099431;27;20042;-85
2023/06/06 07:42:57;;;;;;;9.30;4.68;;;;;;;;;;5083022;27;20075;-84
2023/06/06 07:45:23;;;;;;;9.65;4.10;;;;;;;;;;5097454;27;20549;-85
2023/06/06 07:47:49;;;;;;;11.98;4.40;;;;;;;;;;5082999;27;20432;-85
2023/06/06 07:50:17;;;;;;;9.35;4.78;;;;;;;;;;5100803;27;20077;-84
2023/06/06 07:52:44;;;;;;;11.50;5.68;;;;;;;;;;5085183;27;20123;-86
2023/06/06 07:55:16;;;;;;;8.55;4.15;;;;;;;;;;5098222;27;20055;-84
2023/06/06 07:57:45;;;;;;;9.55;4.10;;;;;;;;;;5089103;28;20069;-85
2023/06/06 08:00:15;;;;;;;9.70;4.05;;;;;;;;;;5097476;27;20054;-85
2023/06/06 08:02:41;;;;;;;8.45;3.83;;;;;;;;;;5079516;27;20046;-84
2023/06/06 08:05:07;;;;;;;10.13;4.05;;;;;;;;;;5088162;27;20046;-86
2023/06/06 08:07:36;;;;;;;10.02;3.70;;;;;;;;;;5084394;28;20335;-86
2023/06/06 08:10:02;;;;;;;11.48;4.20;;;;;;;;;;5098606;27;20055;-85
2023/06/06 08:12:28;;;;;;;9.52;4.07;;;;;;;;;;5097546;27;20399;-86
2023/06/06 08:14:54;;;;;;;7.18;3.75;;;;;;;;;;5082383;27;20424;-86
2023/06/06 08:17:20;;;;;;;12.73;4.68;;;;;;;;;;5098355;27;20043;-84
2023/06/06 08:19:46;;;;;;;8.63;4.53;;;;;;;;;;5092918;28;20105;-85
2023/06/06 08:22:13;;;;;;;10.35;3.97;;;;;;;;;;5103278;27;20045;-85
2023/06/06 08:24:39;;;;;;;7.28;3.63;;;;;;;;;;5085956;28;20416;-85
2023/06/06 08:27:08;;;;;;;10.45;3.83;;;;;;;;;;5080530;28;20664;-83
2023/06/06 08:29:34;;;;;;;12.40;5.82;;;;;;;;;;5101251;27;20507;-83
2023/06/06 08:32:01;;;;;;;7.63;3.60;;;;;;;;;;5101113;27;20043;-83
2023/06/06 08:34:28;;;;;;;8.65;4.13;;;;;;;;;;5100723;27;20053;-84
2023/06/06 08:36:54;;;;;;;10.35;4.93;;;;;;;;;;5083951;28;20082;-84
2023/06/06 08:39:23;;;;;;;11.27;4.03;;;;;;;;;;5110027;27;20039;-84
2023/06/06 08:41:51;;;;;;;8.88;3.67;;;;;;;;;;5103210;27;20043;-85
2023/06/06 08:44:18;;;;;;;9.10;4.18;;;;;;;;;;5106744;27;20159;-84
2023/06/06 08:46:47;;;;;;;7.53;3.72;;;;;;;;;;5103544;27;20568;-84
2023/06/06 08:49:13;;;;;;;9.32;3.90;;;;;;;;;;5103984;27;20503;-85
2023/06/06 08:51:40;;;;;;;10.20;4.53;;;;;;;;;;5073236;28;20039;-84
2023/06/06 08:54:06;;;;;;;10.88;4.38;;;;;;;;;;5098587;27;20039;-85
2023/06/06 08:56:32;;;;;;;9.52;4.28;;;;;;;;;;5089544;27;20115;-84
2023/06/06 08:58:59;;;;;;;11.93;5.13;;;;;;;;;;5100439;27;20046;-85
2023/06/06 09:01:25;;;;;;;13.85;4.93;;;;;;;;;;5077933;27;20048;-84
2023/06/06 09:03:53;;;;;;;11.55;4.32;;;;;;;;;;5100684;27;20039;-84
2023/06/06 09:06:20;;;;;;;15.18;4.30;;;;;;;;;;5099830;27;20056;-84
2023/06/06 09:08:47;;;;;;;13.35;5.53;;;;;;;;;;5100719;28;20072;-84
2023/06/06 09:11:13;;;;;;;7.40;4.57;;;;;;;;;;5100723;27;20035;-84
2023/06/06 09:13:41;;;;;;;11.80;4.10;;;;;;;;;;5072939;28;20051;-84
2023/06/06 09:16:08;;;;;;;10.07;4.75;;;;;;;;;;5089195;27;20040;-83
2023/06/06 09:18:38;;;;;;;8.95;4.30;;;;;;;;;;5104699;27;20039;-84
2023/06/06 09:21:04;;;;;;;7.68;4.05;;;;;;;;;;5106473;27;20047;-84
2023/06/06 09:23:31;;;;;;;10.90;4.30;;;;;;;;;;5102945;27;20234;-84
2023/06/06 09:25:58;;;;;;;12.73;5.05;;;;;;;;;;5103811;27;20184;-83
2023/06/06 09:28:40;;;;;;;11.05;4.50;;;;;;;;;;5111186;27;20047;-83
2023/06/06 09:31:25;;;;;;;11.57;4.93;;;;;;;;;;5101349;27;20132;-84
2023/06/06 09:33:53;;;;;;;12.80;4.75;;;;;;;;;;5093900;27;20379;-85
2023/06/06 09:36:23;;;;;;;12.05;5.65;;;;;;;;;;5103333;27;20128;-84
2023/06/06 09:38:52;;;;;;;8.75;4.57;;;;;;;;;;5090233;27;20050;-84
2023/06/06 09:41:19;;;;;;;12.50;4.63;;;;;;;;;;5098240;27;20207;-84
2023/06/06 09:43:45;;;;;;;12.05;5.00;;;;;;;;;;5102255;27;20058;-87
2023/06/06 09:46:20;;;;;;;10.57;4.63;;;;;;;;;;5099279;27;20042;-87
2023/06/06 09:48:55;;;;;;;9.93;4.80;;;;;;;;;;5087192;27;20044;-86
2023/06/06 09:51:24;;;;;;;11.25;5.07;;;;;;;;;;5074261;27;20069;-85
2023/06/06 09:53:53;;;;;;;11.90;4.95;;;;;;;;;;5088763;27;20051;-87
2023/06/06 09:56:23;;;;;;;11.50;5.22;;;;;;;;;;5085902;27;20449;-86
2023/06/06 09:58:56;;;;;;;10.40;4.88;;;;;;;;;;5085802;27;20035;-86
2023/06/06 10:01:33;;;;;;;13.20;4.75;;;;;;;;;;5099100;27;20577;-87
2023/06/06 10:03:59;;;;;;;10.70;4.47;;;;;;;;;;5087029;27;20043;-87
2023/06/06 10:06:26;;;;;;;12.20;4.85;;;;;;;;;;5083619;27;20186;-85
2023/06/06 10:08:56;;;;;;;11.27;4.70;;;;;;;;;;5085098;27;20043;-87
2023/06/06 10:11:22;;;;;;;12.88;5.13;;;;;;;;;;5070226;27;20039;-86
2023/06/06 10:13:49;;;;;;;8.95;5.22;;;;;;;;;;5081387;27;20059;-88
2023/06/06 10:16:17;;;;;;;13.07;5.00;;;;;;;;;;5087169;27;20047;-86
2023/06/06 10:18:46;;;;;;;15.10;5.05;;;;;;;;;;5085532;27;20062;-87
2023/06/06 10:21:15;;;;;;;17.48;5.55;;;;;;;;;;5101468;27;20128;-86
2023/06/06 10:23:42;;;;;;;11.02;4.95;;;;;;;;;;5102532;27;20100;-86
2023/06/06 10:26:10;;;;;;;13.30;5.03;;;;;;;;;;5086244;27;20107;-81
2023/06/06 10:28:38;;;;;;;16.13;5.05;;;;;;;;;;5081267;27;20142;-87
2023/06/06 10:31:11;;;;;;;11.32;5.10;;;;;;;;;;5086119;27;20048;-88
2023/06/06 10:33:48;;;;;;;8.63;3.90;;;;;;;;;;5098965;27;20043;-87
2023/06/06 10:36:17;;;;;;;10.43;4.40;;;;;;;;;;5086378;27;20467;-87
2023/06/06 10:39:03;;;;;;;6.22;3.80;;;;;;;;;;5082627;27;20047;-86
2023/06/06 10:41:41;;;;;;;9.95;4.47;;;;;;;;;;5088701;27;20054;-87
2023/06/06 10:44:07;;;;;;;18.48;4.50;;;;;;;;;;5102480;27;20061;-85
2023/06/06 10:46:40;;;;;;;12.02;3.97;;;;;;;;;;5086478;27;20099;-87
2023/06/06 10:49:08;;;;;;;11.80;4.63;;;;;;;;;;5128916;27;20032;-86
2023/06/06 10:51:36;;;;;;;8.70;3.92;;;;;;;;;;5104350;27;20047;-85
2023/06/06 10:54:21;;;;;;;9.52;4.40;;;;;;;;;;5094924;27;21333;-86
2023/06/06 10:56:52;;;;;;;12.05;4.38;;;;;;;;;;5120601;27;20050;-85
2023/06/06 10:59:21;;;;;;;11.65;4.55;;;;;;;;;;5106125;27;20050;-87
2023/06/06 11:01:47;;;;;;;12.82;4.13;;;;;;;;;;5099411;27;20046;-87
2023/06/06 11:04:17;;;;;;;10.75;4.68;;;;;;;;;;5089082;27;20040;-87
2023/06/06 11:06:44;;;;;;;17.10;4.95;;;;;;;;;;5088509;27;20061;-85
2023/06/06 11:09:23;;;;;;;10.00;4.32;;;;;;;;;;5100861;27;20158;-86
2023/06/06 11:11:51;;;;;;;8.57;3.95;;;;;;;;;;5088274;27;20443;-87
2023/06/06 11:14:21;;;;;;;8.88;4.30;;;;;;;;;;5100113;27;20533;-86
2023/06/06 11:16:50;;;;;;;11.18;3.95;;;;;;;;;;5102015;27;20118;-87
2023/06/06 11:19:21;;;;;;;10.18;4.03;;;;;;;;;;5085070;27;20039;-85
2023/06/06 11:21:50;;;;;;;11.73;4.40;;;;;;;;;;5102575;27;20523;-85
2023/06/06 11:24:18;;;;;;;9.25;4.10;;;;;;;;;;5120009;27;20344;-85
2023/06/06 11:26:45;;;;;;;9.48;4.10;;;;;;;;;;5100509;27;20391;-88
2023/06/06 11:29:12;;;;;;;12.75;4.45;;;;;;;;;;5089601;27;20086;-86
2023/06/06 11:31:38;;;;;;;11.55;4.22;;;;;;;;;;5086558;27;20035;-87
2023/06/06 11:34:11;;;;;;;11.75;4.85;;;;;;;;;;5088138;27;20053;-87
2023/06/06 11:36:44;;;;;;;9.67;4.17;;;;;;;;;;5090816;27;20050;-86
2023/06/06 11:39:11;;;;;;;14.02;4.13;;;;;;;;;;5092617;27;20350;-88
2023/06/06 11:41:44;;;;;;;12.68;4.45;;;;;;;;;;5089569;27;20082;-86
2023/06/06 11:44:11;;;;;;;16.13;4.20;;;;;;;;;;5085438;27;20041;-86
2023/06/06 11:46:48;;;;;;;10.27;3.95;;;;;;;;;;5087572;27;20372;-87
2023/06/06 11:49:14;;;;;;;10.52;3.55;;;;;;;;;;5094856;27;20404;-87
2023/06/06 11:51:41;;;;;;;16.35;4.05;;;;;;;;;;5100903;27;20048;-87
2023/06/06 11:54:33;;;;;;;11.98;3.80;;;;;;;;;;5086238;27;20099;-86
2023/06/06 11:57:03;;;;;;;11.70;3.88;;;;;;;;;;5095420;27;20051;-87
2023/06/06 11:59:29;;;;;;;14.60;4.38;;;;;;;;;;5089213;27;20032;-85
2023/06/06 12:01:58;;;;;;;9.63;3.75;;;;;;;;;;5102627;27;20078;-87
2023/06/06 12:04:25;;;;;;;10.52;4.03;;;;;;;;;;5100667;27;20043;-87
2023/06/06 12:06:56;;;;;;;9.00;3.95;;;;;;;;;;5100647;27;20066;-87
2023/06/06 12:09:32;;;;;;;11.40;3.72;;;;;;;;;;5102001;27;20498;-86
2023/06/06 12:12:04;;;;;;;16.38;4.10;;;;;;;;;;5090717;27;20246;-79
2023/06/06 12:14:32;;;;;;;7.82;3.80;;;;;;;;;;5099078;27;20046;-80
2023/06/06 12:17:05;;;;;;;9.70;3.90;;;;;;;;;;5097882;27;20139;-80
2023/06/06 12:19:32;;;;;;;9.35;3.97;;;;;;;;;;5101019;27;20050;-80
2023/06/06 12:21:58;;;;;;;9.35;3.72;;;;;;;;;;5099560;27;20179;-80
2023/06/06 12:24:25;;;;;;;12.05;4.25;;;;;;;;;;5073758;28;20104;-87
2023/06/06 12:27:05;;;;;;;10.18;3.92;;;;;;;;;;5100425;27;20176;-87
2023/06/06 12:29:35;;;;;;;12.15;4.22;;;;;;;;;;5084229;28;20055;-88
2023/06/06 12:32:18;;;;;;;9.73;3.60;;;;;;;;;;5086270;28;20040;-86
2023/06/06 12:34:59;;;;;;;13.60;4.03;;;;;;;;;;5101740;27;20054;-87
2023/06/06 12:37:34;;;;;;;10.50;3.33;;;;;;;;;;5100230;27;20752;-88
2023/06/06 12:40:07;;;;;;;12.80;4.00;;;;;;;;;;5088798;28;20035;-85
2023/06/06 12:42:34;;;;;;;11.32;3.83;;;;;;;;;;5092707;28;20035;-88
2023/06/06 12:45:03;;;;;;;9.95;3.45;;;;;;;;;;5099484;27;20110;-88
2023/06/06 12:47:29;;;;;;;13.35;3.95;;;;;;;;;;5086415;27;20047;-88
2023/06/06 12:49:55;;;;;;;13.90;4.93;;;;;;;;;;5100493;27;20395;-87
2023/06/06 12:52:25;;;;;;;12.40;4.22;;;;;;;;;;5105836;27;20535;-88
2023/06/06 12:54:51;;;;;;;9.80;3.90;;;;;;;;;;5091228;27;20050;-88
2023/06/06 12:57:21;;;;;;;14.15;4.68;;;;;;;;;;5105055;27;20109;-88
2023/06/06 12:59:47;;;;;;;7.85;3.75;;;;;;;;;;5103670;27;20055;-87
2023/06/06 13:02:21;;;;;;;14.70;4.65;;;;;;;;;;5093855;27;20477;-88
2023/06/06 13:04:47;;;;;;;;;;;;;;;;;;5079642;27;20151;-88
2023/06/06 13:07:19;;;;;;;11.27;3.85;;;;;;;;;;5092342;27;19931;-87
2023/06/06 13:09:55;;;;;;;12.88;3.90;;;;;;;;;;5106145;27;20148;-87
2023/06/06 13:12:25;;;;;;;12.50;3.78;;;;;;;;;;5088888;27;20039;-88
2023/06/06 13:14:58;;;;;;;10.10;3.40;;;;;;;;;;5096285;27;20635;-88
2023/06/06 13:17:40;;;;;;;7.75;3.65;;;;;;;;;;5086860;27;20066;-88
2023/06/06 13:20:10;;;;;;;9.63;3.85;;;;;;;;;;5090127;27;20582;-89
2023/06/06 13:22:40;;;;;;;8.82;3.70;;;;;;;;;;5093704;27;20132;-88
2023/06/06 13:25:08;;;;;;;9.18;3.75;;;;;;;;;;5092681;27;20439;-88
2023/06/06 13:27:37;;;;;;;10.38;3.75;;;;;;;;;;5086055;27;21730;-87
2023/06/06 13:30:14;;;;;;;8.07;3.45;;;;;;;;;;5089937;27;20168;-89
2023/06/06 13:32:43;;;;;;;8.65;3.20;;;;;;;;;;5103592;27;20054;-89
2023/06/06 13:35:09;;;;;;;11.15;3.97;;;;;;;;;;5104142;27;20055;-87
2023/06/06 13:37:35;;;;;;;10.27;3.95;;;;;;;;;;5076405;27;20035;-86
2023/06/06 13:40:01;;;;;;;14.20;4.43;;;;;;;;;;5091479;27;20080;-85
2023/06/06 13:42:27;;;;;;;9.40;3.05;;;;;;;;;;5083491;27;20035;-84
2023/06/06 13:44:53;;;;;;;12.55;4.40;;;;;;;;;;5081947;27;20181;-84
2023/06/06 13:47:19;;;;;;;9.88;4.03;;;;;;;;;;5102341;27;20046;-86
2023/06/06 13:49:45;;;;;;;8.50;4.05;;;;;;;;;;5103834;27;20023;-86
2023/06/06 13:52:12;;;;;;;13.63;3.75;;;;;;;;;;5083724;27;20048;-86
2023/06/06 13:54:38;;;;;;;14.50;3.92;;;;;;;;;;5074027;27;20050;-86
2023/06/06 13:57:04;;;;;;;8.80;3.60;;;;;;;;;;5091325;27;20045;-86
2023/06/06 13:59:32;;;;;;;11.45;3.40;;;;;;;;;;5105012;27;20039;-86
2023/06/06 14:01:58;;;;;;;7.55;3.60;;;;;;;;;;5103101;27;20051;-87
2023/06/06 14:04:24;;;;;;;10.55;3.70;;;;;;;;;;5074229;27;20091;-87
2023/06/06 14:06:53;;;;;;;8.25;3.83;;;;;;;;;;5094107;27;20039;-87
2023/06/06 14:09:20;;;;;;;13.57;4.45;;;;;;;;;;5086513;27;20070;-88
2023/06/06 14:11:50;;;;;;;10.93;3.65;;;;;;;;;;5076309;27;20039;-85
2023/06/06 14:14:16;;;;;;;10.57;3.80;;;;;;;;;;5089473;27;20044;-87
2023/06/06 14:16:42;;;;;;;11.40;3.55;;;;;;;;;;5085165;27;20039;-86
2023/06/06 14:19:12;;;;;;;8.80;3.75;;;;;;;;;;5100180;27;20054;-86
2023/06/06 14:24:09;;;;;;;13.18;4.13;;;;;;;;;;5087132;27;20192;-86
2023/06/06 14:26:35;;;;;;;7.53;3.75;;;;;;;;;;5092077;27;20486;-86
2023/06/06 14:29:01;;;;;;;11.05;3.33;;;;;;;;;;5103210;27;20455;-85
2023/06/06 14:31:28;;;;;;;7.40;3.45;;;;;;;;;;5100161;27;20047;-71
2023/06/06 14:33:54;;;;;;;13.75;4.07;;;;;;;;;;5096469;27;21691;-72
2023/06/06 14:36:20;;;;;;;12.27;3.45;;;;;;;;;;5097059;27;20074;-71
2023/06/06 14:38:46;;;;;;;6.93;3.33;;;;;;;;;;5096068;27;20120;-71
2023/06/06 14:41:12;;;;;;;10.48;3.75;;;;;;;;;;5099786;27;20040;-72
2023/06/06 14:43:40;;;;;;;11.10;3.88;;;;;;;;;;5093103;27;20100;-75
2023/06/06 14:46:06;;;;;;;11.45;4.18;;;;;;;;;;5099205;27;20517;-72
2023/06/06 14:48:32;;;;;;;13.50;4.13;;;;;;;;;;5089420;27;20398;-72
2023/06/06 14:50:58;;;;;;;13.13;4.95;;;;;;;;;;5090283;27;20502;-71
2023/06/06 14:53:25;;;;;;;8.20;3.95;;;;;;;;;;5091515;27;20380;-72
2023/06/06 14:55:51;;;;;;;13.77;4.72;;;;;;;;;;5091560;27;20455;-71
2023/06/06 14:58:17;;;;;;;10.73;4.03;;;;;;;;;;5095667;27;20042;-77
2023/06/06 15:00:43;;;;;;;13.02;4.45;;;;;;;;;;5092728;27;20158;-78
2023/06/06 15:03:09;;;;;;;8.57;3.90;;;;;;;;;;5081988;27;20043;-78
2023/06/06 15:05:36;;;;;;;13.48;4.32;;;;;;;;;;5080084;27;20079;-79
2023/06/06 15:08:02;;;;;;;7.82;3.70;;;;;;;;;;5092301;27;20050;-78
2023/06/06 15:10:29;;;;;;;13.13;4.60;;;;;;;;;;5082838;27;20055;-78
2023/06/06 15:12:55;;;;;;;10.73;4.15;;;;;;;;;;5088624;27;20044;-79
2023/06/06 15:15:21;;;;;;;8.43;3.58;;;;;;;;;;5095311;27;20046;-79
2023/06/06 15:17:47;;;;;;;12.00;3.88;;;;;;;;;;5092690;27;20137;-79
2023/06/06 15:20:14;;;;;;;7.93;3.13;;;;;;;;;;5094503;27;20483;-79
2023/06/06 15:22:40;;;;;;;7.50;3.85;;;;;;;;;;5090130;27;20518;-80
2023/06/06 15:25:07;;;;;;;9.98;3.33;;;;;;;;;;5089769;27;20044;-79
2023/06/06 15:27:33;;;;;;;9.63;3.90;;;;;;;;;;5089420;27;20051;-79
2023/06/06 15:29:59;;;;;;;12.98;4.30;;;;;;;;;;5099001;27;20179;-78
2023/06/06 15:32:27;;;;;;;13.07;3.75;;;;;;;;;;5076019;27;20070;-78
2023/06/06 15:34:53;;;;;;;12.68;3.80;;;;;;;;;;5092164;27;20615;-78
2023/06/06 15:37:20;;;;;;;9.05;3.92;;;;;;;;;;5081662;27;20043;-78
2023/06/06 15:39:47;;;;;;;8.57;3.70;;;;;;;;;;5090300;27;20113;-79
2023/06/06 15:42:14;;;;;;;11.05;3.80;;;;;;;;;;5093009;27;20054;-78
2023/06/06 15:44:40;;;;;;;8.50;4.07;;;;;;;;;;5088581;27;20063;-79
2023/06/06 15:47:06;;;;;;;11.10;4.40;;;;;;;;;;5090995;27;20043;-78
2023/06/06 15:49:33;;;;;;;10.10;4.35;;;;;;;;;;5078614;27;20047;-81
2023/06/06 15:51:59;;;;;;;9.02;4.00;;;;;;;;;;5078370;27;20058;-81